sensor_id;sensor_type;location;lat;lon;timestamp;P1;durP1;ratioP1;P2;durP2;ratioP2
295;SDS011;132;48.770;9.200;2024-03-08T00:00:34;39.15;;;18.38;;
295;SDS011;132;48.770;9.200;2024-03-08T00:03:21;43.33;;;20.48;;
295;SDS011;132;48.770;9.200;2024-03-08T00:06:08;40.40;;;19.00;;
295;SDS011;132;48.770;9.200;2024-03-08T00:14:40;40.05;;;20.02;;
295;SDS011;132;48.770;9.200;2024-03-08T00:17:27;40.45;;;19.20;;
295;SDS011;132;48.770;9.200;2024-03-08T00:20:15;37.45;;;19.30;;
295;SDS011;132;48.770;9.200;2024-03-08T00:23:03;34.97;;;19.00;;
295;SDS011;132;48.770;9.200;2024-03-08T00:25:51;37.50;;;18.92;;
295;SDS011;132;48.770;9.200;2024-03-08T00:28:38;41.95;;;19.85;;
295;SDS011;132;48.770;9.200;2024-03-08T00:34:21;42.10;;;18.30;;
295;SDS011;132;48.770;9.200;2024-03-08T02:23:39;34.10;;;17.08;;
295;SDS011;132;48.770;9.200;2024-03-08T02:26:26;37.70;;;17.42;;
295;SDS011;132;48.770;9.200;2024-03-08T02:29:13;34.55;;;17.63;;
295;SDS011;132;48.770;9.200;2024-03-08T02:32:00;36.60;;;18.05;;
295;SDS011;132;48.770;9.200;2024-03-08T02:34:47;39.03;;;18.83;;
295;SDS011;132;48.770;9.200;2024-03-08T03:00:13;32.72;;;16.45;;
295;SDS011;132;48.770;9.200;2024-03-08T03:51:42;32.92;;;16.88;;
295;SDS011;132;48.770;9.200;2024-03-08T03:54:30;31.70;;;16.70;;
295;SDS011;132;48.770;9.200;2024-03-08T03:57:17;32.90;;;16.33;;
295;SDS011;132;48.770;9.200;2024-03-08T04:14:14;37.08;;;16.90;;
295;SDS011;132;48.770;9.200;2024-03-08T05:44:26;41.42;;;19.38;;
295;SDS011;132;48.770;9.200;2024-03-08T05:47:14;38.38;;;19.73;;
295;SDS011;132;48.770;9.200;2024-03-08T06:19:53;37.72;;;18.42;;
295;SDS011;132;48.770;9.200;2024-03-08T06:25:38;38.63;;;19.45;;
295;SDS011;132;48.770;9.200;2024-03-08T06:28:25;42.28;;;20.17;;
295;SDS011;132;48.770;9.200;2024-03-08T06:31:11;41.08;;;19.30;;
295;SDS011;132;48.770;9.200;2024-03-08T06:33:58;37.53;;;18.80;;
295;SDS011;132;48.770;9.200;2024-03-08T06:36:45;44.60;;;18.30;;
295;SDS011;132;48.770;9.200;2024-03-08T06:39:31;40.15;;;19.75;;
295;SDS011;132;48.770;9.200;2024-03-08T06:42:18;38.92;;;19.50;;
295;SDS011;132;48.770;9.200;2024-03-08T07:32:18;39.00;;;19.58;;
295;SDS011;132;48.770;9.200;2024-03-08T07:35:10;37.10;;;19.30;;
295;SDS011;132;48.770;9.200;2024-03-08T07:43:42;33.45;;;18.08;;
295;SDS011;132;48.770;9.200;2024-03-08T07:46:29;37.05;;;18.90;;
295;SDS011;132;48.770;9.200;2024-03-08T07:49:16;41.53;;;19.40;;
295;SDS011;132;48.770;9.200;2024-03-08T07:52:00;36.67;;;18.73;;
295;SDS011;132;48.770;9.200;2024-03-08T07:57:45;35.17;;;19.08;;
295;SDS011;132;48.770;9.200;2024-03-08T08:00:33;39.83;;;19.20;;
295;SDS011;132;48.770;9.200;2024-03-08T08:12:19;36.47;;;19.17;;
295;SDS011;132;48.770;9.200;2024-03-08T08:18:03;30.90;;;17.65;;
295;SDS011;132;48.770;9.200;2024-03-08T08:20:51;33.50;;;17.70;;
295;SDS011;132;48.770;9.200;2024-03-08T08:23:41;33.92;;;18.40;;
295;SDS011;132;48.770;9.200;2024-03-08T08:26:27;37.10;;;18.10;;
295;SDS011;132;48.770;9.200;2024-03-08T08:29:15;33.30;;;18.02;;
295;SDS011;132;48.770;9.200;2024-03-08T08:32:03;31.90;;;17.88;;
295;SDS011;132;48.770;9.200;2024-03-08T08:34:50;38.15;;;19.02;;
295;SDS011;132;48.770;9.200;2024-03-08T08:37:38;32.78;;;18.13;;
295;SDS011;132;48.770;9.200;2024-03-08T08:40:25;35.83;;;18.42;;
295;SDS011;132;48.770;9.200;2024-03-08T08:47:27;35.03;;;18.17;;
295;SDS011;132;48.770;9.200;2024-03-08T08:50:14;37.30;;;18.10;;
295;SDS011;132;48.770;9.200;2024-03-08T08:53:02;34.08;;;17.95;;
295;SDS011;132;48.770;9.200;2024-03-08T08:55:45;29.20;;;17.27;;
295;SDS011;132;48.770;9.200;2024-03-08T08:58:32;34.85;;;18.05;;
295;SDS011;132;48.770;9.200;2024-03-08T09:07:05;34.00;;;17.77;;
295;SDS011;132;48.770;9.200;2024-03-08T09:09:52;37.60;;;18.63;;
295;SDS011;132;48.770;9.200;2024-03-08T09:12:42;32.25;;;17.23;;
295;SDS011;132;48.770;9.200;2024-03-08T09:15:29;29.83;;;16.77;;
295;SDS011;132;48.770;9.200;2024-03-08T09:18:16;32.92;;;17.67;;
295;SDS011;132;48.770;9.200;2024-03-08T09:27:01;37.05;;;18.08;;
295;SDS011;132;48.770;9.200;2024-03-08T09:29:49;37.03;;;17.80;;
295;SDS011;132;48.770;9.200;2024-03-08T09:32:35;33.88;;;17.52;;
295;SDS011;132;48.770;9.200;2024-03-08T09:35:22;31.50;;;16.92;;
295;SDS011;132;48.770;9.200;2024-03-08T09:40:58;32.05;;;17.60;;
295;SDS011;132;48.770;9.200;2024-03-08T09:43:47;33.95;;;17.65;;
295;SDS011;132;48.770;9.200;2024-03-08T09:46:34;34.78;;;17.75;;
295;SDS011;132;48.770;9.200;2024-03-08T09:49:20;31.55;;;18.15;;
295;SDS011;132;48.770;9.200;2024-03-08T09:52:07;33.47;;;17.75;;
295;SDS011;132;48.770;9.200;2024-03-08T09:54:54;34.88;;;17.42;;
295;SDS011;132;48.770;9.200;2024-03-08T09:57:41;32.42;;;17.00;;
295;SDS011;132;48.770;9.200;2024-03-08T10:00:49;30.08;;;16.13;;
295;SDS011;132;48.770;9.200;2024-03-08T10:03:36;28.33;;;15.82;;
295;SDS011;132;48.770;9.200;2024-03-08T10:06:23;29.48;;;16.30;;
295;SDS011;132;48.770;9.200;2024-03-08T10:09:10;28.80;;;16.40;;
295;SDS011;132;48.770;9.200;2024-03-08T10:11:57;29.75;;;16.48;;
295;SDS011;132;48.770;9.200;2024-03-08T10:14:45;29.80;;;15.82;;
295;SDS011;132;48.770;9.200;2024-03-08T10:17:32;30.83;;;17.88;;
295;SDS011;132;48.770;9.200;2024-03-08T10:20:20;30.75;;;16.13;;
295;SDS011;132;48.770;9.200;2024-03-08T10:23:07;32.13;;;17.30;;
295;SDS011;132;48.770;9.200;2024-03-08T10:25:55;32.20;;;17.00;;
295;SDS011;132;48.770;9.200;2024-03-08T10:28:44;27.80;;;16.42;;
295;SDS011;132;48.770;9.200;2024-03-08T10:31:33;29.40;;;15.45;;
295;SDS011;132;48.770;9.200;2024-03-08T10:34:20;28.17;;;15.57;;
295;SDS011;132;48.770;9.200;2024-03-08T10:37:06;29.92;;;16.80;;
295;SDS011;132;48.770;9.200;2024-03-08T10:40:03;32.38;;;16.13;;
295;SDS011;132;48.770;9.200;2024-03-08T10:42:57;31.05;;;16.30;;
295;SDS011;132;48.770;9.200;2024-03-08T10:45:45;26.42;;;15.98;;
295;SDS011;132;48.770;9.200;2024-03-08T10:48:36;30.20;;;17.65;;
295;SDS011;132;48.770;9.200;2024-03-08T10:51:29;32.28;;;17.45;;
295;SDS011;132;48.770;9.200;2024-03-08T10:54:17;29.70;;;18.52;;
295;SDS011;132;48.770;9.200;2024-03-08T10:57:06;25.33;;;16.17;;
295;SDS011;132;48.770;9.200;2024-03-08T10:59:54;30.25;;;17.52;;
295;SDS011;132;48.770;9.200;2024-03-08T11:02:44;29.58;;;16.40;;
295;SDS011;132;48.770;9.200;2024-03-08T11:05:32;28.65;;;16.77;;
295;SDS011;132;48.770;9.200;2024-03-08T11:08:24;28.30;;;18.23;;
295;SDS011;132;48.770;9.200;2024-03-08T11:15:44;29.50;;;24.37;;
295;SDS011;132;48.770;9.200;2024-03-08T11:18:33;193.40;;;184.13;;
295;SDS011;132;48.770;9.200;2024-03-08T11:21:20;32.10;;;19.90;;
295;SDS011;132;48.770;9.200;2024-03-08T11:24:12;106.50;;;101.37;;
295;SDS011;132;48.770;9.200;2024-03-08T11:26:59;197.80;;;188.30;;
295;SDS011;132;48.770;9.200;2024-03-08T11:29:58;119.30;;;113.60;;
295;SDS011;132;48.770;9.200;2024-03-08T11:32:56;621.73;;;592.07;;
295;SDS011;132;48.770;9.200;2024-03-08T11:35:49;1224.83;;;999.90;;
295;SDS011;132;48.770;9.200;2024-03-08T11:38:39;938.00;;;893.27;;
295;SDS011;132;48.770;9.200;2024-03-08T11:41:26;1235.43;;;999.90;;
295;SDS011;132;48.770;9.200;2024-03-08T11:44:13;689.83;;;656.93;;
295;SDS011;132;48.770;9.200;2024-03-08T11:47:02;1259.00;;;999.90;;
295;SDS011;132;48.770;9.200;2024-03-08T11:49:54;1218.47;;;999.90;;
295;SDS011;132;48.770;9.200;2024-03-08T11:55:30;1274.87;;;999.90;;
295;SDS011;132;48.770;9.200;2024-03-08T11:58:21;1046.07;;;996.13;;
295;SDS011;132;48.770;9.200;2024-03-08T12:01:08;1304.10;;;999.90;;
295;SDS011;132;48.770;9.200;2024-03-08T12:03:59;1257.30;;;999.90;;
295;SDS011;132;48.770;9.200;2024-03-08T12:06:46;1299.67;;;999.90;;
295;SDS011;132;48.770;9.200;2024-03-08T12:09:34;1294.97;;;999.90;;
295;SDS011;132;48.770;9.200;2024-03-08T12:12:24;1288.00;;;999.90;;
295;SDS011;132;48.770;9.200;2024-03-08T12:15:11;1285.80;;;999.90;;
295;SDS011;132;48.770;9.200;2024-03-08T12:17:58;1269.70;;;999.90;;
295;SDS011;132;48.770;9.200;2024-03-08T12:20:46;1241.47;;;999.90;;
295;SDS011;132;48.770;9.200;2024-03-08T12:23:36;1251.10;;;999.90;;
295;SDS011;132;48.770;9.200;2024-03-08T12:26:25;1249.80;;;999.90;;
295;SDS011;132;48.770;9.200;2024-03-08T12:32:06;1185.60;;;999.90;;
295;SDS011;132;48.770;9.200;2024-03-08T12:34:53;1242.63;;;999.90;;
295;SDS011;132;48.770;9.200;2024-03-08T12:37:40;1244.80;;;999.90;;
295;SDS011;132;48.770;9.200;2024-03-08T12:40:28;1221.70;;;999.90;;
295;SDS011;132;48.770;9.200;2024-03-08T12:43:18;1251.70;;;999.90;;
295;SDS011;132;48.770;9.200;2024-03-08T12:46:05;1231.73;;;999.90;;
295;SDS011;132;48.770;9.200;2024-03-08T12:48:52;1231.23;;;999.90;;
295;SDS011;132;48.770;9.200;2024-03-08T12:51:39;1235.97;;;999.90;;
295;SDS011;132;48.770;9.200;2024-03-08T12:54:27;1227.87;;;999.90;;
295;SDS011;132;48.770;9.200;2024-03-08T12:57:14;1200.90;;;999.90;;
295;SDS011;132;48.770;9.200;2024-03-08T13:00:01;1193.87;;;999.90;;
295;SDS011;132;48.770;9.200;2024-03-08T13:02:49;1161.23;;;999.90;;
295;SDS011;132;48.770;9.200;2024-03-08T13:11:42;30.37;;;20.00;;
295;SDS011;132;48.770;9.200;2024-03-08T13:14:29;27.73;;;18.20;;
295;SDS011;132;48.770;9.200;2024-03-08T13:17:17;31.23;;;19.17;;
295;SDS011;132;48.770;9.200;2024-03-08T13:20:04;29.60;;;17.73;;
295;SDS011;132;48.770;9.200;2024-03-08T13:22:52;31.23;;;17.80;;
295;SDS011;132;48.770;9.200;2024-03-08T13:25:38;30.03;;;17.97;;
295;SDS011;132;48.770;9.200;2024-03-08T13:28:26;32.63;;;18.70;;
295;SDS011;132;48.770;9.200;2024-03-08T13:31:18;30.83;;;17.33;;
295;SDS011;132;48.770;9.200;2024-03-08T13:34:07;32.03;;;18.27;;
295;SDS011;132;48.770;9.200;2024-03-08T13:36:57;36.33;;;19.63;;
295;SDS011;132;48.770;9.200;2024-03-08T13:39:46;32.70;;;18.27;;
295;SDS011;132;48.770;9.200;2024-03-08T13:42:32;30.47;;;17.37;;
295;SDS011;132;48.770;9.200;2024-03-08T13:45:19;34.63;;;17.50;;
295;SDS011;132;48.770;9.200;2024-03-08T13:48:10;31.33;;;16.40;;
295;SDS011;132;48.770;9.200;2024-03-08T13:50:59;33.70;;;18.07;;
295;SDS011;132;48.770;9.200;2024-03-08T13:53:43;33.47;;;18.83;;
295;SDS011;132;48.770;9.200;2024-03-08T13:56:30;30.13;;;17.63;;
295;SDS011;132;48.770;9.200;2024-03-08T13:59:18;34.40;;;18.30;;
295;SDS011;132;48.770;9.200;2024-03-08T14:02:05;37.50;;;18.03;;
295;SDS011;132;48.770;9.200;2024-03-08T14:04:52;33.93;;;18.10;;
295;SDS011;132;48.770;9.200;2024-03-08T14:07:40;35.50;;;17.90;;
295;SDS011;132;48.770;9.200;2024-03-08T14:10:27;33.03;;;16.73;;
295;SDS011;132;48.770;9.200;2024-03-08T14:13:14;35.20;;;17.30;;
295;SDS011;132;48.770;9.200;2024-03-08T14:16:02;31.77;;;17.00;;
295;SDS011;132;48.770;9.200;2024-03-08T14:18:49;27.30;;;15.40;;
295;SDS011;132;48.770;9.200;2024-03-08T14:21:37;31.03;;;17.47;;
295;SDS011;132;48.770;9.200;2024-03-08T14:24:25;30.00;;;16.23;;
295;SDS011;132;48.770;9.200;2024-03-08T14:30:23;29.90;;;16.97;;
295;SDS011;132;48.770;9.200;2024-03-08T14:33:53;27.50;;;16.20;;
295;SDS011;132;48.770;9.200;2024-03-08T14:36:41;31.07;;;16.10;;
295;SDS011;132;48.770;9.200;2024-03-08T14:39:29;32.80;;;17.07;;
295;SDS011;132;48.770;9.200;2024-03-08T14:42:15;29.23;;;16.60;;
295;SDS011;132;48.770;9.200;2024-03-08T14:45:02;31.03;;;16.13;;
295;SDS011;132;48.770;9.200;2024-03-08T14:47:50;28.87;;;16.07;;
295;SDS011;132;48.770;9.200;2024-03-08T14:50:36;32.70;;;15.80;;
295;SDS011;132;48.770;9.200;2024-03-08T14:53:23;31.80;;;17.10;;
295;SDS011;132;48.770;9.200;2024-03-08T14:56:10;35.67;;;16.93;;
295;SDS011;132;48.770;9.200;2024-03-08T14:59:02;31.87;;;17.13;;
295;SDS011;132;48.770;9.200;2024-03-08T15:01:50;29.07;;;17.03;;
295;SDS011;132;48.770;9.200;2024-03-08T15:04:37;27.67;;;15.73;;
295;SDS011;132;48.770;9.200;2024-03-08T15:07:26;32.20;;;16.73;;
295;SDS011;132;48.770;9.200;2024-03-08T15:10:16;30.80;;;16.40;;
295;SDS011;132;48.770;9.200;2024-03-08T15:16:48;27.33;;;16.33;;
295;SDS011;132;48.770;9.200;2024-03-08T15:22:46;32.77;;;17.03;;
295;SDS011;132;48.770;9.200;2024-03-08T15:29:11;30.50;;;16.10;;
295;SDS011;132;48.770;9.200;2024-03-08T15:32:06;30.27;;;16.17;;
295;SDS011;132;48.770;9.200;2024-03-08T15:34:55;30.10;;;15.60;;
295;SDS011;132;48.770;9.200;2024-03-08T15:37:52;29.83;;;16.03;;
295;SDS011;132;48.770;9.200;2024-03-08T15:40:40;26.87;;;15.30;;
295;SDS011;132;48.770;9.200;2024-03-08T15:43:35;28.67;;;16.00;;
295;SDS011;132;48.770;9.200;2024-03-08T15:46:22;29.80;;;16.30;;
295;SDS011;132;48.770;9.200;2024-03-08T15:49:11;27.73;;;15.77;;
295;SDS011;132;48.770;9.200;2024-03-08T15:51:58;29.90;;;15.77;;
295;SDS011;132;48.770;9.200;2024-03-08T15:54:44;28.90;;;16.00;;
295;SDS011;132;48.770;9.200;2024-03-08T15:57:32;26.37;;;15.10;;
295;SDS011;132;48.770;9.200;2024-03-08T16:00:19;29.53;;;16.50;;
295;SDS011;132;48.770;9.200;2024-03-08T16:03:41;29.93;;;16.00;;
295;SDS011;132;48.770;9.200;2024-03-08T16:18:56;30.83;;;15.85;;
295;SDS011;132;48.770;9.200;2024-03-08T16:21:43;31.58;;;16.15;;
295;SDS011;132;48.770;9.200;2024-03-08T16:24:42;29.90;;;15.10;;
295;SDS011;132;48.770;9.200;2024-03-08T16:27:30;27.93;;;15.50;;
295;SDS011;132;48.770;9.200;2024-03-08T16:43:59;28.38;;;14.90;;
295;SDS011;132;48.770;9.200;2024-03-08T16:46:47;29.55;;;14.15;;
295;SDS011;132;48.770;9.200;2024-03-08T16:54:20;25.73;;;13.73;;
295;SDS011;132;48.770;9.200;2024-03-08T16:57:09;24.25;;;13.63;;
295;SDS011;132;48.770;9.200;2024-03-08T17:03:52;27.20;;;14.20;;
295;SDS011;132;48.770;9.200;2024-03-08T17:06:41;25.23;;;13.50;;
295;SDS011;132;48.770;9.200;2024-03-08T17:09:28;28.90;;;14.48;;
295;SDS011;132;48.770;9.200;2024-03-08T17:12:16;25.63;;;13.80;;
295;SDS011;132;48.770;9.200;2024-03-08T17:15:05;30.50;;;15.65;;
295;SDS011;132;48.770;9.200;2024-03-08T17:28:17;24.25;;;13.30;;
295;SDS011;132;48.770;9.200;2024-03-08T17:54:33;27.23;;;13.73;;
295;SDS011;132;48.770;9.200;2024-03-08T18:25:59;26.58;;;14.50;;
295;SDS011;132;48.770;9.200;2024-03-08T18:28:47;26.98;;;13.63;;
295;SDS011;132;48.770;9.200;2024-03-08T18:31:34;23.95;;;13.68;;
295;SDS011;132;48.770;9.200;2024-03-08T18:34:21;23.92;;;13.35;;
295;SDS011;132;48.770;9.200;2024-03-08T18:37:08;25.63;;;13.75;;
295;SDS011;132;48.770;9.200;2024-03-08T18:43:57;23.58;;;12.55;;
295;SDS011;132;48.770;9.200;2024-03-08T18:51:16;22.83;;;12.38;;
295;SDS011;132;48.770;9.200;2024-03-08T18:54:02;24.05;;;12.80;;
295;SDS011;132;48.770;9.200;2024-03-08T19:00:07;23.60;;;12.95;;
295;SDS011;132;48.770;9.200;2024-03-08T19:03:50;22.35;;;11.68;;
295;SDS011;132;48.770;9.200;2024-03-08T19:10:17;22.15;;;12.45;;
295;SDS011;132;48.770;9.200;2024-03-08T19:13:06;24.67;;;11.75;;
295;SDS011;132;48.770;9.200;2024-03-08T19:15:56;21.30;;;12.20;;
295;SDS011;132;48.770;9.200;2024-03-08T19:18:44;22.10;;;11.45;;
295;SDS011;132;48.770;9.200;2024-03-08T19:21:31;23.27;;;12.35;;
295;SDS011;132;48.770;9.200;2024-03-08T19:24:18;22.52;;;11.50;;
295;SDS011;132;48.770;9.200;2024-03-08T19:27:04;20.60;;;11.38;;
295;SDS011;132;48.770;9.200;2024-03-08T19:29:52;18.15;;;10.60;;
295;SDS011;132;48.770;9.200;2024-03-08T19:36:09;19.50;;;11.48;;
295;SDS011;132;48.770;9.200;2024-03-08T19:38:58;24.63;;;10.93;;
295;SDS011;132;48.770;9.200;2024-03-08T19:41:47;19.00;;;11.27;;
295;SDS011;132;48.770;9.200;2024-03-08T19:44:34;19.15;;;10.23;;
295;SDS011;132;48.770;9.200;2024-03-08T19:47:23;23.58;;;11.05;;
295;SDS011;132;48.770;9.200;2024-03-08T19:50:12;17.83;;;10.25;;
295;SDS011;132;48.770;9.200;2024-03-08T19:53:02;22.02;;;12.18;;
295;SDS011;132;48.770;9.200;2024-03-08T19:55:53;18.48;;;10.55;;
295;SDS011;132;48.770;9.200;2024-03-08T20:02:59;18.63;;;10.07;;
295;SDS011;132;48.770;9.200;2024-03-08T20:08:59;18.75;;;9.57;;
295;SDS011;132;48.770;9.200;2024-03-08T20:11:46;20.88;;;10.40;;
295;SDS011;132;48.770;9.200;2024-03-08T20:14:32;24.38;;;10.10;;
295;SDS011;132;48.770;9.200;2024-03-08T20:17:21;19.15;;;10.40;;
295;SDS011;132;48.770;9.200;2024-03-08T20:20:12;19.40;;;10.70;;
295;SDS011;132;48.770;9.200;2024-03-08T20:23:05;17.40;;;10.02;;
295;SDS011;132;48.770;9.200;2024-03-08T21:19:55;20.02;;;10.90;;
295;SDS011;132;48.770;9.200;2024-03-08T21:22:46;23.85;;;12.43;;
295;SDS011;132;48.770;9.200;2024-03-08T21:25:37;21.92;;;11.93;;
295;SDS011;132;48.770;9.200;2024-03-08T21:28:26;21.85;;;10.88;;
295;SDS011;132;48.770;9.200;2024-03-08T21:31:16;20.73;;;10.98;;
295;SDS011;132;48.770;9.200;2024-03-08T21:34:04;20.58;;;11.57;;
295;SDS011;132;48.770;9.200;2024-03-08T21:36:51;19.73;;;10.90;;
295;SDS011;132;48.770;9.200;2024-03-08T21:39:39;20.30;;;11.30;;
295;SDS011;132;48.770;9.200;2024-03-08T21:42:26;21.98;;;11.93;;
295;SDS011;132;48.770;9.200;2024-03-08T21:48:28;21.10;;;11.38;;
295;SDS011;132;48.770;9.200;2024-03-08T21:51:17;20.40;;;11.27;;
295;SDS011;132;48.770;9.200;2024-03-08T21:54:04;24.08;;;12.40;;
295;SDS011;132;48.770;9.200;2024-03-08T22:00:51;22.40;;;11.98;;
295;SDS011;132;48.770;9.200;2024-03-08T22:03:48;23.38;;;12.02;;
295;SDS011;132;48.770;9.200;2024-03-08T22:06:35;24.67;;;12.02;;
295;SDS011;132;48.770;9.200;2024-03-08T22:39:34;22.40;;;12.52;;
295;SDS011;132;48.770;9.200;2024-03-08T22:42:22;21.08;;;11.52;;
295;SDS011;132;48.770;9.200;2024-03-08T22:45:11;20.35;;;12.02;;
295;SDS011;132;48.770;9.200;2024-03-08T22:48:02;22.42;;;12.10;;
295;SDS011;132;48.770;9.200;2024-03-08T22:53:58;26.27;;;13.40;;
295;SDS011;132;48.770;9.200;2024-03-08T22:56:46;33.13;;;13.70;;
295;SDS011;132;48.770;9.200;2024-03-08T23:05:25;26.42;;;13.98;;
295;SDS011;132;48.770;9.200;2024-03-08T23:08:23;25.13;;;13.23;;
295;SDS011;132;48.770;9.200;2024-03-08T23:11:15;29.23;;;13.75;;
